Time,TemperatureF,DewpointF,PressureIn,WindDirection,WindDirectionDegrees,WindSpeedMPH,WindSpeedGustMPH,Humidity,HourlyPrecipIn,Conditions,Clouds,dailyrainin,SolarRadiationWatts/m^2,SoftwareType,DateUTC
2013-04-25 00:00:00,52.0,45.4,29.79,WSW,251,8.0,16.0,78,0.00,,OVC080,0.00,0.00,VWS V14.01,2013-04-25 04:00:00,
2013-04-25 00:05:00,51.9,45.6,29.79,SSW,200,7.0,16.0,79,0.00,,OVC080,0.00,0.00,VWS V14.01,2013-04-25 04:05:00,
2013-04-25 00:10:00,51.8,45.5,29.80,SSW,212,6.0,15.0,79,0.00,,OVC080,0.00,0.00,VWS V14.01,2013-04-25 04:10:00,
2013-04-25 00:15:00,51.6,45.3,29.80,SSW,193,10.0,17.0,79,0.00,,OVC080,0.00,0.00,VWS V14.01,2013-04-25 04:15:00,
2013-04-25 00:20:00,51.6,45.6,29.80,South,181,14.0,20.0,80,0.00,,OVC080,0.00,0.00,VWS V14.01,2013-04-25 04:20:00,
2013-04-25 00:25:00,51.5,45.5,29.81,SSW,192,5.0,15.0,80,0.00,,OVC080,0.00,0.00,VWS V14.01,2013-04-25 04:25:00,
2013-04-25 00:30:00,51.4,45.5,29.81,SW,220,4.0,17.0,80,0.00,,OVC080,0.00,0.00,VWS V14.01,2013-04-25 04:30:00,
2013-04-25 00:35:00,51.3,45.7,29.81,South,184,10.0,11.0,81,0.00,,OVC080,0.00,0.00,VWS V14.01,2013-04-25 04:35:00,
2013-04-25 00:40:00,51.3,45.7,29.81,WSW,255,5.0,18.0,81,0.00,,OVC080,0.00,0.00,VWS V14.01,2013-04-25 04:40:00,
2013-04-25 00:45:00,51.2,45.6,29.80,SSW,212,15.0,15.0,81,0.00,,OVC080,0.00,0.00,VWS V14.01,2013-04-25 04:45:00,
2013-04-25 00:50:00,51.2,45.9,29.79,WSW,239,8.0,15.0,82,0.00,,OVC080,0.00,0.00,VWS V14.01,2013-04-25 04:50:00,
2013-04-25 00:55:00,51.2,45.9,29.79,SSW,200,15.0,17.0,82,0.00,,OVC080,0.00,0.00,VWS V14.01,2013-04-25 04:55:00,
2013-04-25 01:00:00,51.2,45.9,29.79,South,190,11.0,15.0,82,0.00,,OVC080,0.00,0.00,VWS V14.01,2013-04-25 05:00:00,
2013-04-25 01:05:00,51.3,46.0,29.79,West,265,9.0,14.0,82,0.00,,OVC080,0.00,0.00,VWS V14.01,2013-04-25 05:05:00,
2013-04-25 01:10:00,51.3,46.3,29.78,SSW,192,8.0,13.0,83,0.00,,OVC080,0.00,0.00,VWS V14.01,2013-04-25 05:10:00,
2013-04-25 01:15:00,51.4,46.4,29.78,SSW,196,8.0,19.0,83,0.00,,OVC080,0.00,0.00,VWS V14.01,2013-04-25 05:15:00,
2013-04-25 01:20:00,51.6,46.6,29.78,South,182,7.0,15.0,83,0.00,,OVC080,0.00,0.00,VWS V14.01,2013-04-25 05:20:00,
2013-04-25 01:25:00,51.7,46.7,29.78,SSW,194,5.0,15.0,83,0.00,,OVC080,0.00,0.00,VWS V14.01,2013-04-25 05:25:00,
2013-04-25 01:30:00,51.8,46.8,29.78,South,190,8.0,13.0,83,0.00,,OVC080,0.00,0.00,VWS V14.01,2013-04-25 05:30:00,
2013-04-25 01:35:00,51.9,47.2,29.77,SSW,199,5.0,17.0,84,0.00,,OVC080,0.00,0.00,VWS V14.01,2013-04-25 05:35:00,
2013-04-25 01:40:00,52.0,47.3,29.77,SW,236,4.0,15.0,84,0.00,,OVC080,0.00,0.00,VWS V14.01,2013-04-25 05:40:00,
2013-04-25 01:45:00,52.1,47.4,29.79,SW,235,6.0,14.0,84,0.00,,OVC080,0.00,0.00,VWS V14.01,2013-04-25 05:45:00,
2013-04-25 01:50:00,52.3,47.6,29.78,South,186,4.0,15.0,84,0.00,,OVC080,0.00,0.00,VWS V14.01,2013-04-25 05:50:00,
2013-04-25 01:55:00,52.4,48.0,29.78,South,187,7.0,13.0,85,0.00,,OVC080,0.00,0.00,VWS V14.01,2013-04-25 05:55:00,
2013-04-25 02:00:00,52.7,48.3,29.79,SSW,204,10.0,17.0,85,0.00,,OVC080,0.00,0.00,VWS V14.01,2013-04-25 06:00:00,
2013-04-25 02:05:00,53.0,48.6,29.79,SW,224,11.0,20.0,85,0.00,,OVC080,0.00,0.00,VWS V14.01,2013-04-25 06:05:00,
2013-04-25 02:10:00,53.1,48.7,29.79,WSW,240,3.0,15.0,85,0.00,,OVC080,0.00,0.00,VWS V14.01,2013-04-25 06:10:00,
2013-04-25 02:15:00,53.2,48.8,29.78,SSW,199,7.0,15.0,85,0.00,,OVC080,0.00,0.00,VWS V14.01,2013-04-25 06:15:00,
2013-04-25 02:20:00,53.4,49.0,29.77,SW,229,11.0,16.0,85,0.00,,OVC080,0.00,0.00,VWS V14.01,2013-04-25 06:20:00,
2013-04-25 02:25:00,53.6,49.2,29.77,South,169,5.0,19.0,85,0.00,,OVC080,0.00,0.00,VWS V14.01,2013-04-25 06:25:00,
2013-04-25 02:30:00,53.7,49.3,29.78,SSW,204,11.0,17.0,85,0.00,,OVC080,0.00,0.00,VWS V14.01,2013-04-25 06:30:00,
2013-04-25 02:35:00,53.9,49.5,29.78,SW,233,9.0,15.0,85,0.00,,OVC080,0.00,0.00,VWS V14.01,2013-04-25 06:35:00,
2013-04-25 02:40:00,53.9,49.5,29.77,South,169,6.0,14.0,85,0.00,,OVC080,0.00,0.00,VWS V14.01,2013-04-25 06:40:00,
2013-04-25 02:45:00,53.9,49.5,29.77,SSW,213,7.0,10.0,85,0.00,,OVC080,0.00,0.00,VWS V14.01,2013-04-25 06:45:00,
2013-04-25 02:50:00,54.0,49.6,29.77,SW,220,7.0,11.0,85,0.00,,OVC080,0.00,0.00,VWS V14.01,2013-04-25 06:50:00,
2013-04-25 02:55:00,54.1,49.7,29.77,South,182,9.0,12.0,85,0.00,,OVC080,0.00,0.00,VWS V14.01,2013-04-25 06:55:00,
2013-04-25 03:00:00,54.1,49.7,29.77,West,264,7.0,12.0,85,0.00,,OVC080,0.00,0.00,VWS V14.01,2013-04-25 07:00:00,
2013-04-25 03:05:00,54.2,49.8,29.78,South,188,4.0,9.0,85,0.00,,OVC080,0.00,0.00,VWS V14.01,2013-04-25 07:05:00,
2013-04-25 03:10:00,54.2,49.8,29.79,WSW,244,5.0,8.0,85,0.00,,OVC080,0.00,0.00,VWS V14.01,2013-04-25 07:10:00,
2013-04-25 03:15:00,54.3,49.9,29.79,SSW,212,8.0,11.0,85,0.00,,OVC080,0.00,0.00,VWS V14.01,2013-04-25 07:15:00,
2013-04-25 03:20:00,54.5,50.1,29.80,WSW,250,6.0,13.0,85,0.00,,OVC080,0.00,0.00,VWS V14.01,2013-04-25 07:20:00,
2013-04-25 03:25:00,54.5,50.1,29.81,West,276,1.0,9.0,85,0.00,,OVC080,0.00,0.00,VWS V14.01,2013-04-25 07:25:00,
2013-04-25 03:30:00,54.6,50.2,29.80,WSW,239,8.0,12.0,85,0.00,,OVC080,0.00,0.00,VWS V14.01,2013-04-25 07:30:00,
2013-04-25 03:35:00,54.6,50.2,29.80,SW,228,1.0,10.0,85,0.00,,OVC080,0.00,0.00,VWS V14.01,2013-04-25 07:35:00,
2013-04-25 03:40:00,54.6,50.2,29.80,WSW,240,6.0,15.0,85,0.00,,OVC080,0.00,0.00,VWS V14.01,2013-04-25 07:40:00,
2013-04-25 03:45:00,54.7,50.3,29.80,WSW,248,6.0,9.0,85,0.00,,OVC080,0.00,0.00,VWS V14.01,2013-04-25 07:45:00,
2013-04-25 03:50:00,54.8,50.4,29.80,SSW,208,5.0,11.0,85,0.00,,OVC080,0.00,0.00,VWS V14.01,2013-04-25 07:50:00,
2013-04-25 03:55:00,54.8,50.4,29.80,SSW,203,2.0,11.0,85,0.00,,OVC080,0.00,0.00,VWS V14.01,2013-04-25 07:55:00,
2013-04-25 04:00:00,54.8,50.4,29.80,WNW,284,2.0,10.0,85,0.00,,OVC080,0.00,0.00,VWS V14.01,2013-04-25 08:00:00,
2013-04-25 04:05:00,54.9,50.5,29.81,WSW,254,9.0,12.0,85,0.00,,OVC080,0.00,0.00,VWS V14.01,2013-04-25 08:05:00,
2013-04-25 04:10:00,54.9,50.2,29.80,WSW,247,3.0,10.0,84,0.00,,OVC080,0.00,0.00,VWS V14.01,2013-04-25 08:10:00,
2013-04-25 04:15:00,54.9,50.2,29.80,SSW,212,5.0,9.0,84,0.00,,OVC080,0.00,0.00,VWS V14.01,2013-04-25 08:15:00,
2013-04-25 04:20:00,54.9,50.5,29.82,SW,228,5.0,7.0,85,0.00,,OVC080,0.00,0.00,VWS V14.01,2013-04-25 08:20:00,
2013-04-25 04:25:00,54.8,50.4,29.82,WSW,252,4.0,6.0,85,0.00,,OVC080,0.00,0.00,VWS V14.01,2013-04-25 08:25:00,
2013-04-25 04:30:00,54.7,50.6,29.82,SW,234,6.0,9.0,86,0.00,,OVC080,0.00,0.00,VWS V14.01,2013-04-25 08:30:00,
2013-04-25 04:35:00,54.6,50.5,29.83,SW,234,3.0,8.0,86,0.00,,OVC080,0.00,0.00,VWS V14.01,2013-04-25 08:35:00,
2013-04-25 04:40:00,54.5,50.7,29.83,SSW,208,5.0,6.0,87,0.00,,OVC080,0.00,0.00,VWS V14.01,2013-04-25 08:40:00,
2013-04-25 04:45:00,54.3,50.5,29.83,WSW,258,8.0,8.0,87,0.01,,OVC080,0.01,0.00,VWS V14.01,2013-04-25 08:45:00,
2013-04-25 04:50:00,54.1,50.6,29.82,SW,226,4.0,9.0,88,0.02,,OVC080,0.02,0.00,VWS V14.01,2013-04-25 08:50:00,
2013-04-25 04:55:00,53.8,50.6,29.82,SSW,208,3.0,8.0,89,0.02,,OVC080,0.02,0.00,VWS V14.01,2013-04-25 08:55:00,
2013-04-25 05:00:00,53.7,50.8,29.83,West,259,5.0,7.0,90,0.02,,OVC080,0.02,0.00,VWS V14.01,2013-04-25 09:00:00,
2013-04-25 05:05:00,53.5,50.6,29.83,West,266,2.0,7.0,90,0.02,,OVC080,0.02,0.00,VWS V14.01,2013-04-25 09:05:00,
2013-04-25 05:10:00,53.4,50.5,29.84,WSW,250,3.0,6.0,90,0.02,,OVC080,0.02,0.00,VWS V14.01,2013-04-25 09:10:00,
2013-04-25 05:15:00,53.4,50.8,29.84,West,275,4.0,6.0,91,0.02,,OVC080,0.02,0.00,VWS V14.01,2013-04-25 09:15:00,
2013-04-25 05:20:00,53.3,50.7,29.85,NW,305,12.0,13.0,91,0.03,,OVC080,0.03,0.00,VWS V14.01,2013-04-25 09:20:00,
2013-04-25 05:25:00,53.1,50.2,29.85,West,273,10.0,16.0,90,0.03,,OVC080,0.03,0.00,VWS V14.01,2013-04-25 09:25:00,
2013-04-25 05:30:00,52.8,49.7,29.85,WNW,300,10.0,13.0,89,0.03,,OVC080,0.03,0.00,VWS V14.01,2013-04-25 09:30:00,
2013-04-25 05:35:00,51.9,47.2,29.87,WNW,287,13.0,23.0,84,0.03,,OVC080,0.03,0.00,VWS V14.01,2013-04-25 09:35:00,
2013-04-25 05:40:00,50.7,45.1,29.89,WNW,300,14.0,27.0,81,0.03,,OVC080,0.03,0.00,VWS V14.01,2013-04-25 09:40:00,
2013-04-25 05:45:00,49.7,43.1,29.90,WNW,298,7.0,22.0,78,0.03,,OVC080,0.03,0.00,VWS V14.01,2013-04-25 09:45:00,
2013-04-25 05:50:00,49.1,41.5,29.91,WNW,296,16.0,25.0,75,0.02,,OVC080,0.03,0.00,VWS V14.01,2013-04-25 09:50:00,
2013-04-25 05:55:00,48.7,41.1,29.92,WNW,290,10.0,16.0,75,0.01,,OVC080,0.03,0.00,VWS V14.01,2013-04-25 09:55:00,
2013-04-25 06:00:00,48.5,40.6,29.90,NNW,329,9.0,17.0,74,0.01,,OVC080,0.03,0.00,VWS V14.01,2013-04-25 10:00:00,
2013-04-25 06:05:00,48.4,40.2,29.90,NW,309,8.0,16.0,73,0.01,,OVC080,0.03,0.00,VWS V14.01,2013-04-25 10:05:00,
2013-04-25 06:10:00,48.3,40.1,29.91,NW,304,5.0,16.0,73,0.01,,OVC080,0.03,0.00,VWS V14.01,2013-04-25 10:10:00,
2013-04-25 06:15:00,48.1,39.5,29.91,WNW,284,7.0,12.0,72,0.01,,OVC080,0.03,0.00,VWS V14.01,2013-04-25 10:15:00,
2013-04-25 06:20:00,48.1,39.2,29.91,West,273,9.0,12.0,71,0.01,,OVC080,0.03,5.00,VWS V14.01,2013-04-25 10:20:00,
2013-04-25 06:25:00,48.0,39.1,29.91,WNW,300,14.0,15.0,71,0.00,,OVC080,0.03,11.00,VWS V14.01,2013-04-25 10:25:00,
2013-04-25 06:30:00,47.9,39.3,29.92,NW,318,7.0,14.0,72,0.00,,OVC080,0.03,11.00,VWS V14.01,2013-04-25 10:30:00,
2013-04-25 06:35:00,47.9,39.0,29.93,West,268,7.0,17.0,71,0.00,,OVC080,0.03,16.00,VWS V14.01,2013-04-25 10:35:00,
2013-04-25 06:40:00,47.8,38.5,29.92,WNW,284,9.0,16.0,70,0.00,,OVC080,0.03,39.00,VWS V14.01,2013-04-25 10:40:00,
2013-04-25 06:45:00,47.7,38.4,29.93,West,281,6.0,12.0,70,0.00,,OVC080,0.03,47.00,VWS V14.01,2013-04-25 10:45:00,
2013-04-25 06:50:00,47.6,38.3,29.94,WNW,290,9.0,13.0,70,0.00,,OVC080,0.03,42.00,VWS V14.01,2013-04-25 10:50:00,
2013-04-25 06:55:00,47.5,38.2,29.96,WNW,288,8.0,12.0,70,0.00,,OVC080,0.03,40.00,VWS V14.01,2013-04-25 10:55:00,
2013-04-25 07:00:00,47.3,38.0,29.97,West,270,5.0,10.0,70,0.00,,OVC021,0.03,86.00,VWS V14.01,2013-04-25 11:00:00,
2013-04-25 07:01:00,47.3,38.0,29.97,WNW,300,5.0,10.0,70,0.00,,OVC021,0.03,86.00,VWS V14.01,2013-04-25 11:01:00,
2013-04-25 07:02:00,47.3,38.0,29.97,WNW,284,3.0,10.0,70,0.00,,OVC021,0.03,93.00,VWS V14.01,2013-04-25 11:02:00,
2013-04-25 07:03:00,47.3,38.0,29.97,WNW,300,6.0,10.0,70,0.00,,OVC021,0.03,93.00,VWS V14.01,2013-04-25 11:03:00,
2013-04-25 07:05:00,47.3,38.0,29.97,WNW,300,6.0,10.0,70,0.00,,OVC080,0.03,93.00,VWS V14.01,2013-04-25 11:05:00,
2013-04-25 07:08:00,47.4,38.5,29.96,WNW,293,9.0,10.0,71,0.00,,OVC021,0.03,111.00,VWS V14.01,2013-04-25 11:08:00,
2013-04-25 07:10:00,47.3,38.4,29.96,West,279,10.0,13.0,71,0.00,,OVC080,0.03,105.00,VWS V14.01,2013-04-25 11:10:00,
2013-04-25 07:13:00,47.4,38.1,29.96,West,268,7.0,8.0,70,0.00,,OVC021,0.03,118.00,VWS V14.01,2013-04-25 11:13:00,
2013-04-25 07:15:00,47.4,38.1,29.95,West,267,7.0,10.0,70,0.00,,OVC080,0.03,144.00,VWS V14.01,2013-04-25 11:15:00,
2013-04-25 07:18:00,47.5,38.2,29.97,West,271,7.0,8.0,70,0.00,,OVC021,0.03,95.00,VWS V14.01,2013-04-25 11:18:00,
2013-04-25 07:20:00,47.5,38.2,29.96,West,269,6.0,14.0,70,0.00,,OVC080,0.03,95.00,VWS V14.01,2013-04-25 11:20:00,
2013-04-25 07:23:00,47.6,38.0,29.97,West,273,6.0,10.0,69,0.00,,OVC021,0.03,139.00,VWS V14.01,2013-04-25 11:23:00,
2013-04-25 07:25:00,47.6,38.0,29.97,WNW,291,5.0,13.0,69,0.00,,OVC080,0.03,139.00,VWS V14.01,2013-04-25 11:25:00,
2013-04-25 07:28:00,47.7,37.7,29.95,West,274,9.0,14.0,68,0.00,,OVC021,0.03,135.00,VWS V14.01,2013-04-25 11:28:00,
2013-04-25 07:30:00,47.6,37.6,29.95,WSW,257,11.0,14.0,68,0.00,,OVC080,0.03,135.00,VWS V14.01,2013-04-25 11:30:00,
2013-04-25 07:33:00,47.8,37.8,29.97,West,262,7.0,10.0,68,0.00,,OVC021,0.03,151.00,VWS V14.01,2013-04-25 11:33:00,
2013-04-25 07:35:00,47.8,37.8,29.97,West,271,9.0,16.0,68,0.00,,OVC080,0.03,151.00,VWS V14.01,2013-04-25 11:35:00,
2013-04-25 07:38:00,47.8,37.8,29.96,WNW,299,4.0,9.0,68,0.00,,OVC021,0.03,98.00,VWS V14.01,2013-04-25 11:38:00,
2013-04-25 07:40:00,47.8,37.8,29.97,WNW,290,8.0,11.0,68,0.00,,OVC080,0.03,98.00,VWS V14.01,2013-04-25 11:40:00,
2013-04-25 07:43:00,47.8,37.4,29.97,NW,313,6.0,8.0,67,0.00,,OVC021,0.03,65.00,VWS V14.01,2013-04-25 11:43:00,
2013-04-25 07:45:00,47.8,37.4,29.97,NNW,330,7.0,14.0,67,0.00,,OVC080,0.03,76.00,VWS V14.01,2013-04-25 11:45:00,
2013-04-25 07:48:00,47.6,37.2,29.96,West,268,8.0,9.0,67,0.00,,OVC021,0.03,74.00,VWS V14.01,2013-04-25 11:48:00,
2013-04-25 07:50:00,47.7,37.3,29.96,WNW,298,8.0,11.0,67,0.00,,OVC080,0.03,70.00,VWS V14.01,2013-04-25 11:50:00,
2013-04-25 07:53:00,47.4,36.2,29.98,WNW,291,10.0,16.0,65,0.00,,OVC021,0.03,53.00,VWS V14.01,2013-04-25 11:53:00,
2013-04-25 07:55:00,47.5,36.3,29.97,NW,304,14.0,17.0,65,0.00,,OVC080,0.03,47.00,VWS V14.01,2013-04-25 11:55:00,
2013-04-25 07:58:00,47.2,35.7,29.99,West,267,11.0,14.0,64,0.00,,OVC021,0.03,95.00,VWS V14.01,2013-04-25 11:58:00,
2013-04-25 08:00:00,47.2,35.7,29.99,WNW,285,13.0,16.0,64,0.00,,OVC080,0.03,91.00,VWS V14.01,2013-04-25 12:00:00,
2013-04-25 08:03:00,47.1,34.8,29.98,West,269,6.0,17.0,62,0.00,,OVC021,0.03,98.00,VWS V14.01,2013-04-25 12:03:00,
2013-04-25 08:05:00,47.1,34.8,29.98,West,268,16.0,17.0,62,0.00,,OVC080,0.03,93.00,VWS V14.01,2013-04-25 12:05:00,
2013-04-25 08:08:00,47.1,34.8,29.99,West,259,7.0,12.0,62,0.00,,OVC021,0.03,111.00,VWS V14.01,2013-04-25 12:08:00,
2013-04-25 08:10:00,47.1,35.2,29.99,NW,305,12.0,17.0,63,0.00,,OVC080,0.03,113.00,VWS V14.01,2013-04-25 12:10:00,
2013-04-25 08:14:00,47.2,34.9,29.98,NNW,332,4.0,8.0,62,0.00,,OVC021,0.03,98.00,VWS V14.01,2013-04-25 12:14:00,
2013-04-25 08:15:00,47.2,34.9,29.99,West,277,5.0,12.0,62,0.00,,OVC080,0.03,91.00,VWS V14.01,2013-04-25 12:15:00,
2013-04-25 08:19:00,47.1,34.8,29.98,NW,307,9.0,9.0,62,0.00,,OVC021,0.03,107.00,VWS V14.01,2013-04-25 12:19:00,
2013-04-25 08:20:00,47.1,34.4,29.98,NNW,329,7.0,13.0,61,0.00,,OVC080,0.03,113.00,VWS V14.01,2013-04-25 12:20:00,
2013-04-25 08:24:00,47.2,34.9,29.99,West,265,8.0,9.0,62,0.00,,OVC021,0.03,121.00,VWS V14.01,2013-04-25 12:24:00,
2013-04-25 08:25:00,47.2,34.5,29.99,West,281,6.0,16.0,61,0.00,,OVC080,0.03,100.00,VWS V14.01,2013-04-25 12:25:00,
2013-04-25 08:29:00,47.3,34.5,29.99,NW,313,8.0,12.0,61,0.00,,OVC021,0.03,130.00,VWS V14.01,2013-04-25 12:29:00,
2013-04-25 08:30:00,47.3,35.0,30.00,WNW,286,12.0,13.0,62,0.00,,OVC080,0.03,146.00,VWS V14.01,2013-04-25 12:30:00,
2013-04-25 08:34:00,47.2,34.5,29.99,WNW,291,10.0,14.0,61,0.00,,OVC021,0.03,65.00,VWS V14.01,2013-04-25 12:34:00,
2013-04-25 08:35:00,47.2,34.9,29.99,NW,309,7.0,12.0,62,0.00,,OVC080,0.03,70.00,VWS V14.01,2013-04-25 12:35:00,
2013-04-25 08:39:00,47.1,34.4,29.99,NW,323,5.0,9.0,61,0.00,,OVC021,0.03,58.00,VWS V14.01,2013-04-25 12:39:00,
2013-04-25 08:40:00,47.1,33.9,29.99,WNW,285,6.0,14.0,60,0.00,,OVC080,0.03,56.00,VWS V14.01,2013-04-25 12:40:00,
2013-04-25 08:44:00,47.1,34.8,30.00,WNW,288,2.0,6.0,62,0.00,,OVC021,0.03,90.00,VWS V14.01,2013-04-25 12:44:00,
2013-04-25 08:45:00,47.0,34.3,30.00,NW,313,6.0,14.0,61,0.00,,OVC080,0.03,83.00,VWS V14.01,2013-04-25 12:45:00,
2013-04-25 08:49:00,47.1,33.9,30.00,West,277,15.0,16.0,60,0.00,,OVC021,0.03,179.00,VWS V14.01,2013-04-25 12:49:00,
2013-04-25 08:50:00,47.1,34.4,30.00,NW,323,6.0,11.0,61,0.00,,OVC080,0.03,174.00,VWS V14.01,2013-04-25 12:50:00,
2013-04-25 08:54:00,47.2,34.0,30.00,NW,304,8.0,13.0,60,0.00,,OVC021,0.03,171.00,VWS V14.01,2013-04-25 12:54:00,
2013-04-25 08:55:00,47.1,34.4,30.00,SSW,200,7.0,16.0,61,0.00,,OVC080,0.03,167.00,VWS V14.01,2013-04-25 12:55:00,
2013-04-25 08:59:00,47.3,34.5,29.99,WNW,287,4.0,8.0,61,0.00,,OVC021,0.03,199.00,VWS V14.01,2013-04-25 12:59:00,
2013-04-25 09:00:00,47.2,34.0,30.00,NW,321,7.0,13.0,60,0.00,,OVC080,0.03,190.00,VWS V14.01,2013-04-25 13:00:00,
2013-04-25 09:04:00,47.3,34.1,30.00,WNW,294,6.0,12.0,60,0.00,,OVC021,0.03,167.00,VWS V14.01,2013-04-25 13:04:00,
2013-04-25 09:05:00,47.3,34.1,29.99,WNW,290,6.0,13.0,60,0.00,,OVC080,0.03,165.00,VWS V14.01,2013-04-25 13:05:00,
2013-04-25 09:09:00,47.3,34.5,30.00,West,263,5.0,11.0,61,0.00,,OVC021,0.03,167.00,VWS V14.01,2013-04-25 13:09:00,
2013-04-25 09:10:00,47.3,34.1,30.01,NNW,329,7.0,12.0,60,0.00,,OVC080,0.03,207.00,VWS V14.01,2013-04-25 13:10:00,
2013-04-25 09:14:00,47.5,34.3,30.00,West,267,7.0,8.0,60,0.00,,OVC021,0.03,308.00,VWS V14.01,2013-04-25 13:14:00,
2013-04-25 09:15:00,47.4,34.2,30.00,WNW,299,5.0,14.0,60,0.00,,OVC080,0.03,308.00,VWS V14.01,2013-04-25 13:15:00,
2013-04-25 09:19:00,47.8,34.6,30.00,West,261,5.0,10.0,60,0.00,,OVC021,0.03,178.00,VWS V14.01,2013-04-25 13:19:00,
2013-04-25 09:20:00,47.7,34.9,30.02,WNW,300,9.0,11.0,61,0.00,,OVC080,0.03,178.00,VWS V14.01,2013-04-25 13:20:00,
2013-04-25 09:24:00,48.5,34.8,30.00,West,275,6.0,13.0,59,0.00,,OVC021,0.03,682.00,VWS V14.01,2013-04-25 13:24:00,
2013-04-25 09:25:00,48.2,35.4,30.00,WNW,294,7.0,16.0,61,0.00,,OVC080,0.03,675.00,VWS V14.01,2013-04-25 13:25:00,
2013-04-25 09:29:00,48.9,34.8,30.00,West,265,6.0,14.0,58,0.00,,OVC021,0.03,589.00,VWS V14.01,2013-04-25 13:29:00,
2013-04-25 09:30:00,48.8,35.1,30.02,NW,311,12.0,13.0,59,0.00,,OVC080,0.03,737.00,VWS V14.01,2013-04-25 13:30:00,
2013-04-25 09:34:00,49.0,35.3,30.01,NNW,337,7.0,8.0,59,0.00,,OVC021,0.03,216.00,VWS V14.01,2013-04-25 13:34:00,
2013-04-25 09:35:00,48.9,35.2,30.01,WSW,258,6.0,14.0,59,0.00,,OVC080,0.03,162.00,VWS V14.01,2013-04-25 13:35:00,
2013-04-25 09:40:00,49.2,35.5,30.01,West,263,5.0,7.0,59,0.00,,OVC021,0.03,278.00,VWS V14.01,2013-04-25 13:40:00,
2013-04-25 09:45:00,49.7,34.7,30.01,NW,321,9.0,12.0,56,0.00,,OVC021,0.03,737.00,VWS V14.01,2013-04-25 13:45:00,
2013-04-25 09:50:00,50.4,35.3,30.01,West,269,8.0,14.0,56,0.00,,OVC021,0.03,766.00,VWS V14.01,2013-04-25 13:50:00,
2013-04-25 09:55:00,50.8,34.3,30.01,West,263,13.0,15.0,53,0.00,,OVC021,0.03,705.00,VWS V14.01,2013-04-25 13:55:00,
2013-04-25 10:00:00,50.9,34.4,30.02,West,280,6.0,16.0,53,0.00,,OVC021,0.03,738.00,VWS V14.01,2013-04-25 14:00:00,
2013-04-25 10:05:00,51.2,33.7,30.01,West,279,12.0,15.0,51,0.00,,OVC021,0.03,751.00,VWS V14.01,2013-04-25 14:05:00,
2013-04-25 10:10:00,51.2,33.7,30.02,WNW,290,11.0,16.0,51,0.00,,OVC021,0.03,796.00,VWS V14.01,2013-04-25 14:10:00,
2013-04-25 10:15:00,51.2,33.7,30.01,NNW,348,6.0,16.0,51,0.00,,OVC021,0.03,810.00,VWS V14.01,2013-04-25 14:15:00,
2013-04-25 10:20:00,52.2,34.6,30.02,NW,313,8.0,15.0,51,0.00,,OVC021,0.03,680.00,VWS V14.01,2013-04-25 14:20:00,
2013-04-25 10:25:00,52.4,33.8,30.01,West,264,15.0,21.0,49,0.00,,OVC021,0.03,812.00,VWS V14.01,2013-04-25 14:25:00,
2013-04-25 10:30:00,52.8,34.2,30.02,WNW,302,13.0,14.0,49,0.00,,OVC021,0.03,814.00,VWS V14.01,2013-04-25 14:30:00,
2013-04-25 10:35:00,53.3,34.7,30.02,NW,323,9.0,16.0,49,0.00,,OVC021,0.03,819.00,VWS V14.01,2013-04-25 14:35:00,
2013-04-25 10:40:00,53.5,33.8,30.02,NW,325,9.0,12.0,47,0.00,,OVC021,0.03,830.00,VWS V14.01,2013-04-25 14:40:00,
2013-04-25 10:45:00,53.4,33.7,30.02,NW,304,10.0,14.0,47,0.00,,OVC021,0.03,831.00,VWS V14.01,2013-04-25 14:45:00,
2013-04-25 10:50:00,53.4,33.7,30.02,West,269,8.0,16.0,47,0.00,,OVC021,0.03,835.00,VWS V14.01,2013-04-25 14:50:00,
2013-04-25 10:55:00,53.5,32.7,30.03,WNW,292,5.0,14.0,45,0.00,,OVC021,0.03,846.00,VWS V14.01,2013-04-25 14:55:00,
2013-04-25 11:00:00,53.4,33.7,30.01,NW,325,9.0,11.0,47,0.00,,OVC021,0.03,849.00,VWS V14.01,2013-04-25 15:00:00,
2013-04-25 11:05:00,53.6,33.9,30.01,West,279,6.0,12.0,47,0.00,,OVC080,0.03,854.00,VWS V14.01,2013-04-25 15:05:00,
2013-04-25 11:06:00,54.0,33.7,30.02,NW,320,13.0,17.0,46,0.00,,OVC021,0.03,854.00,VWS V14.01,2013-04-25 15:06:00,
2013-04-25 11:10:00,53.8,32.4,30.02,NW,307,5.0,17.0,44,0.00,,OVC080,0.03,856.00,VWS V14.01,2013-04-25 15:10:00,
2013-04-25 11:11:00,54.0,33.2,30.02,NNW,330,5.0,13.0,45,0.00,,OVC021,0.03,860.00,VWS V14.01,2013-04-25 15:11:00,
2013-04-25 11:15:00,54.1,33.2,30.02,WNW,302,7.0,13.0,45,0.00,,OVC080,0.03,861.00,VWS V14.01,2013-04-25 15:15:00,
2013-04-25 11:16:00,54.7,34.3,30.03,NW,312,8.0,12.0,46,0.00,,OVC021,0.03,868.00,VWS V14.01,2013-04-25 15:16:00,
2013-04-25 11:20:00,54.8,33.3,30.03,NNW,333,9.0,17.0,44,0.00,,OVC080,0.03,870.00,VWS V14.01,2013-04-25 15:20:00,
2013-04-25 11:21:00,54.5,32.5,30.02,NW,321,8.0,14.0,43,0.00,,OVC021,0.03,872.00,VWS V14.01,2013-04-25 15:21:00,
2013-04-25 11:25:00,54.5,32.5,30.02,North,355,6.0,15.0,43,0.00,,OVC080,0.03,874.00,VWS V14.01,2013-04-25 15:25:00,
2013-04-25 11:26:00,54.5,33.6,30.03,NNW,346,7.0,8.0,45,0.00,,OVC021,0.03,874.00,VWS V14.01,2013-04-25 15:26:00,
2013-04-25 11:30:00,54.6,32.6,30.03,West,264,5.0,13.0,43,0.00,,OVC080,0.03,877.00,VWS V14.01,2013-04-25 15:30:00,
2013-04-25 11:31:00,55.0,32.9,30.02,NW,316,7.0,11.0,43,0.00,,OVC021,0.03,881.00,VWS V14.01,2013-04-25 15:31:00,
2013-04-25 11:35:00,55.2,33.1,30.02,NW,304,13.0,16.0,43,0.00,,OVC080,0.03,882.00,VWS V14.01,2013-04-25 15:35:00,
2013-04-25 11:36:00,55.1,32.4,30.03,NW,309,10.0,15.0,42,0.00,,OVC021,0.03,882.00,VWS V14.01,2013-04-25 15:36:00,
2013-04-25 11:40:00,55.3,34.9,30.03,NW,312,6.0,15.0,46,0.00,,OVC080,0.03,884.00,VWS V14.01,2013-04-25 15:40:00,
2013-04-25 11:41:00,55.6,32.9,30.03,WNW,296,16.0,19.0,42,0.00,,OVC021,0.03,886.00,VWS V14.01,2013-04-25 15:41:00,
2013-04-25 11:45:00,55.4,32.1,30.03,WSW,244,6.0,19.0,41,0.00,,OVC080,0.03,884.00,VWS V14.01,2013-04-25 15:45:00,
2013-04-25 11:46:00,55.3,32.6,30.03,WNW,294,9.0,13.0,42,0.00,,OVC021,0.03,882.00,VWS V14.01,2013-04-25 15:46:00,
2013-04-25 11:50:00,55.3,33.2,30.04,WNW,296,4.0,14.0,43,0.00,,OVC080,0.03,882.00,VWS V14.01,2013-04-25 15:50:00,
2013-04-25 11:51:00,55.5,33.4,30.04,NW,305,7.0,13.0,43,0.00,,OVC021,0.03,881.00,VWS V14.01,2013-04-25 15:51:00,
2013-04-25 11:55:00,55.7,33.6,30.03,NW,316,10.0,13.0,43,0.00,,OVC080,0.03,886.00,VWS V14.01,2013-04-25 15:55:00,
2013-04-25 11:56:00,56.0,33.2,30.03,West,271,12.0,15.0,42,0.00,,OVC021,0.03,889.00,VWS V14.01,2013-04-25 15:56:00,
2013-04-25 12:00:00,56.1,32.1,30.04,WNW,300,8.0,17.0,40,0.00,,OVC080,0.03,891.00,VWS V14.01,2013-04-25 16:00:00,
2013-04-25 12:01:00,56.0,32.0,30.04,NW,317,16.0,22.0,40,0.00,,OVC021,0.03,893.00,VWS V14.01,2013-04-25 16:01:00,
2013-04-25 12:05:00,55.9,30.7,30.04,NW,320,13.0,22.0,38,0.00,,OVC080,0.03,895.00,VWS V14.01,2013-04-25 16:05:00,
2013-04-25 12:06:00,55.7,31.8,30.03,WNW,288,7.0,19.0,40,0.00,,OVC021,0.03,895.00,VWS V14.01,2013-04-25 16:06:00,
2013-04-25 12:10:00,55.8,31.9,30.03,WNW,285,7.0,19.0,40,0.00,,OVC080,0.03,900.00,VWS V14.01,2013-04-25 16:10:00,
2013-04-25 12:11:00,55.9,30.7,30.04,NW,312,8.0,17.0,38,0.00,,OVC021,0.03,900.00,VWS V14.01,2013-04-25 16:11:00,
2013-04-25 12:15:00,55.8,31.2,30.04,NW,316,10.0,17.0,39,0.00,,OVC080,0.03,900.00,VWS V14.01,2013-04-25 16:15:00,
2013-04-25 12:16:00,55.9,32.0,30.03,West,269,10.0,17.0,40,0.00,,OVC021,0.03,898.00,VWS V14.01,2013-04-25 16:16:00,
2013-04-25 12:20:00,56.0,32.0,30.03,WNW,287,9.0,17.0,40,0.00,,OVC080,0.03,898.00,VWS V14.01,2013-04-25 16:20:00,
2013-04-25 12:21:00,56.0,32.0,30.04,WNW,289,12.0,17.0,40,0.00,,OVC021,0.03,902.00,VWS V14.01,2013-04-25 16:21:00,
2013-04-25 12:25:00,56.2,31.6,30.04,West,268,10.0,17.0,39,0.00,,OVC080,0.03,900.00,VWS V14.01,2013-04-25 16:25:00,
2013-04-25 12:26:00,56.2,30.3,30.04,WNW,294,4.0,24.0,37,0.00,,OVC021,0.03,898.00,VWS V14.01,2013-04-25 16:26:00,
2013-04-25 12:30:00,56.1,30.9,30.03,NW,310,10.0,24.0,38,0.00,,OVC080,0.03,898.00,VWS V14.01,2013-04-25 16:30:00,
2013-04-25 12:31:00,56.2,30.3,30.04,WNW,292,8.0,15.0,37,0.00,,OVC021,0.03,896.00,VWS V14.01,2013-04-25 16:31:00,
2013-04-25 12:35:00,56.3,32.3,30.05,NW,310,9.0,15.0,40,0.00,,OVC080,0.03,898.00,VWS V14.01,2013-04-25 16:35:00,
2013-04-25 12:37:00,56.7,30.7,30.05,NW,320,13.0,19.0,37,0.00,,OVC021,0.03,895.00,VWS V14.01,2013-04-25 16:37:00,
2013-04-25 12:40:00,56.6,30.0,30.05,WNW,295,17.0,19.0,36,0.00,,OVC080,0.03,898.00,VWS V14.01,2013-04-25 16:40:00,
2013-04-25 12:42:00,56.4,31.1,30.04,WNW,292,10.0,17.0,38,0.00,,OVC021,0.03,893.00,VWS V14.01,2013-04-25 16:42:00,
2013-04-25 12:45:00,56.5,31.2,30.04,NW,312,6.0,17.0,38,0.00,,OVC080,0.03,893.00,VWS V14.01,2013-04-25 16:45:00,
2013-04-25 12:47:00,56.4,31.1,30.05,NNW,334,10.0,19.0,38,0.00,,OVC021,0.03,893.00,VWS V14.01,2013-04-25 16:47:00,
2013-04-25 12:50:00,56.4,31.1,30.05,NW,312,6.0,19.0,38,0.00,,OVC080,0.03,893.00,VWS V14.01,2013-04-25 16:50:00,
2013-04-25 12:52:00,56.5,31.2,30.04,WNW,300,9.0,15.0,38,0.00,,OVC021,0.03,891.00,VWS V14.01,2013-04-25 16:52:00,
2013-04-25 12:55:00,56.5,31.2,30.04,NW,316,11.0,15.0,38,0.00,,OVC080,0.03,891.00,VWS V14.01,2013-04-25 16:55:00,
2013-04-25 12:57:00,56.5,31.2,30.05,NNW,327,7.0,14.0,38,0.00,,OVC021,0.03,882.00,VWS V14.01,2013-04-25 16:57:00,
2013-04-25 13:00:00,56.6,31.3,30.05,North,5,9.0,15.0,38,0.00,,OVC080,0.03,884.00,VWS V14.01,2013-04-25 17:00:00,
2013-04-25 13:02:00,57.1,31.1,30.05,NW,325,6.0,18.0,37,0.00,,OVC021,0.03,879.00,VWS V14.01,2013-04-25 17:02:00,
2013-04-25 13:05:00,57.2,31.2,30.05,West,271,3.0,18.0,37,0.00,,OVC080,0.03,879.00,VWS V14.01,2013-04-25 17:05:00,
2013-04-25 13:07:00,57.8,31.0,30.04,NW,308,9.0,20.0,36,0.00,,OVC021,0.03,722.00,VWS V14.01,2013-04-25 17:07:00,
2013-04-25 13:10:00,57.8,31.0,30.04,NNW,327,12.0,20.0,36,0.00,,OVC080,0.03,642.00,VWS V14.01,2013-04-25 17:10:00,
2013-04-25 13:12:00,57.8,31.7,30.05,WSW,251,8.0,17.0,37,0.00,,OVC021,0.03,167.00,VWS V14.01,2013-04-25 17:12:00,
2013-04-25 13:15:00,57.8,31.7,30.05,West,260,7.0,17.0,37,0.00,,OVC080,0.03,116.00,VWS V14.01,2013-04-25 17:15:00,
2013-04-25 13:17:00,57.7,29.5,30.05,NW,316,12.0,19.0,34,0.00,,OVC021,0.03,70.00,VWS V14.01,2013-04-25 17:17:00,
2013-04-25 13:20:00,57.7,29.5,30.05,NW,323,10.0,19.0,34,0.00,,OVC080,0.03,70.00,VWS V14.01,2013-04-25 17:20:00,
2013-04-25 13:22:00,57.9,31.8,30.05,NNW,333,6.0,16.0,37,0.00,,OVC021,0.03,70.00,VWS V14.01,2013-04-25 17:22:00,
2013-04-25 13:25:00,58.0,31.9,30.05,NW,315,6.0,16.0,37,0.00,,OVC080,0.03,70.00,VWS V14.01,2013-04-25 17:25:00,
2013-04-25 13:27:00,58.1,31.3,30.05,NNW,338,3.0,17.0,36,0.00,,OVC021,0.03,70.00,VWS V14.01,2013-04-25 17:27:00,
2013-04-25 13:30:00,58.1,32.0,30.05,NNW,328,8.0,17.0,37,0.00,,OVC080,0.03,70.00,VWS V14.01,2013-04-25 17:30:00,
2013-04-25 13:32:00,58.3,31.5,30.05,NNW,340,10.0,14.0,36,0.00,,OVC021,0.03,69.00,VWS V14.01,2013-04-25 17:32:00,
2013-04-25 13:35:00,58.4,30.9,30.05,NW,325,7.0,14.0,35,0.00,,OVC080,0.03,69.00,VWS V14.01,2013-04-25 17:35:00,
2013-04-25 13:37:00,58.9,29.9,30.06,North,355,8.0,14.0,33,0.00,,OVC021,0.03,69.00,VWS V14.01,2013-04-25 17:37:00,
2013-04-25 13:40:00,58.9,29.9,30.06,NW,326,10.0,14.0,33,0.00,,OVC080,0.03,69.00,VWS V14.01,2013-04-25 17:40:00,
2013-04-25 13:42:00,58.8,30.5,30.06,NW,315,6.0,13.0,34,0.00,,OVC021,0.03,69.00,VWS V14.01,2013-04-25 17:42:00,
2013-04-25 13:45:00,58.8,30.5,30.06,NW,318,6.0,13.0,34,0.00,,OVC080,0.03,69.00,VWS V14.01,2013-04-25 17:45:00,
2013-04-25 13:48:00,59.2,31.6,30.06,West,266,12.0,12.0,35,0.00,,OVC021,0.03,69.00,VWS V14.01,2013-04-25 17:48:00,
2013-04-25 13:50:00,59.2,31.6,30.06,West,275,10.0,12.0,35,0.00,,OVC080,0.03,69.00,VWS V14.01,2013-04-25 17:50:00,
2013-04-25 13:53:00,59.4,31.8,30.05,NNE,31,5.0,13.0,35,0.00,,OVC021,0.03,69.00,VWS V14.01,2013-04-25 17:53:00,
2013-04-25 13:55:00,59.4,31.8,30.05,NNE,31,5.0,13.0,35,0.00,,OVC080,0.03,69.00,VWS V14.01,2013-04-25 17:55:00,
2013-04-25 13:58:00,59.6,29.0,30.05,NNW,348,4.0,14.0,31,0.00,,OVC021,0.03,70.00,VWS V14.01,2013-04-25 17:58:00,
2013-04-25 14:00:00,59.6,29.0,30.05,NNW,348,4.0,14.0,31,0.00,,OVC080,0.03,70.00,VWS V14.01,2013-04-25 18:00:00,
2013-04-25 14:03:00,59.1,28.5,30.05,NW,309,5.0,15.0,31,0.00,,OVC021,0.03,70.00,VWS V14.01,2013-04-25 18:03:00,
2013-04-25 14:05:00,59.1,28.5,30.05,NW,309,5.0,15.0,31,0.00,,OVC080,0.03,70.00,VWS V14.01,2013-04-25 18:05:00,
2013-04-25 14:08:00,59.5,30.4,30.06,North,351,2.0,6.0,33,0.00,,OVC021,0.03,70.00,VWS V14.01,2013-04-25 18:08:00,
2013-04-25 14:10:00,59.6,30.5,30.05,NNE,13,6.0,10.0,33,0.00,,OVC080,0.03,70.00,VWS V14.01,2013-04-25 18:10:00,
2013-04-25 14:13:00,60.0,32.3,30.05,NW,325,8.0,9.0,35,0.00,,OVC021,0.03,204.00,VWS V14.01,2013-04-25 18:13:00,
2013-04-25 14:15:00,59.9,31.5,30.05,NW,318,7.0,8.0,34,0.00,,OVC080,0.03,204.00,VWS V14.01,2013-04-25 18:15:00,
2013-04-25 14:18:00,59.6,31.2,30.06,NNW,346,5.0,6.0,34,0.00,,OVC021,0.03,615.00,VWS V14.01,2013-04-25 18:18:00,
2013-04-25 14:20:00,59.7,29.8,30.05,NNW,331,6.0,14.0,32,0.00,,OVC080,0.03,615.00,VWS V14.01,2013-04-25 18:20:00,
2013-04-25 14:23:00,59.7,30.6,30.05,NNE,19,8.0,9.0,33,0.00,,OVC021,0.03,796.00,VWS V14.01,2013-04-25 18:23:00,
2013-04-25 14:25:00,59.7,30.6,30.05,NNW,335,8.0,10.0,33,0.00,,OVC080,0.03,796.00,VWS V14.01,2013-04-25 18:25:00,
2013-04-25 14:28:00,60.0,30.8,30.05,WSW,243,5.0,5.0,33,0.00,,OVC021,0.03,443.00,VWS V14.01,2013-04-25 18:28:00,
2013-04-25 14:30:00,60.0,30.8,30.05,WSW,248,4.0,9.0,33,0.00,,OVC080,0.03,443.00,VWS V14.01,2013-04-25 18:30:00,
2013-04-25 14:33:00,60.4,29.6,30.05,SW,217,0.0,4.0,31,0.00,,OVC021,0.03,308.00,VWS V14.01,2013-04-25 18:33:00,
2013-04-25 14:35:00,60.4,29.6,30.05,SW,217,4.0,7.0,31,0.00,,OVC080,0.03,295.00,VWS V14.01,2013-04-25 18:35:00,
2013-04-25 14:38:00,60.9,30.9,30.05,West,280,3.0,5.0,32,0.00,,OVC021,0.03,376.00,VWS V14.01,2013-04-25 18:38:00,
2013-04-25 14:40:00,60.9,30.9,30.05,WNW,290,5.0,6.0,32,0.00,,OVC080,0.03,376.00,VWS V14.01,2013-04-25 18:40:00,
2013-04-25 14:43:00,60.8,30.0,30.05,West,273,8.0,9.0,31,0.00,,OVC021,0.03,311.00,VWS V14.01,2013-04-25 18:43:00,
2013-04-25 14:45:00,60.8,30.8,30.05,West,275,8.0,14.0,32,0.00,,OVC080,0.03,311.00,VWS V14.01,2013-04-25 18:45:00,
2013-04-25 14:48:00,60.4,30.4,30.04,NW,311,7.0,8.0,32,0.00,,OVC021,0.03,619.00,VWS V14.01,2013-04-25 18:48:00,
2013-04-25 14:50:00,60.4,30.4,30.04,NW,316,6.0,11.0,32,0.00,,OVC080,0.03,619.00,VWS V14.01,2013-04-25 18:50:00,
2013-04-25 14:53:00,60.4,30.4,30.04,West,273,4.0,4.0,32,0.00,,OVC021,0.03,682.00,VWS V14.01,2013-04-25 18:53:00,
2013-04-25 14:55:00,60.3,30.3,30.04,WNW,285,1.0,8.0,32,0.00,,OVC080,0.03,682.00,VWS V14.01,2013-04-25 18:55:00,
2013-04-25 14:58:00,61.1,29.5,30.05,WNW,292,3.0,6.0,30,0.00,,OVC021,0.03,693.00,VWS V14.01,2013-04-25 18:58:00,
2013-04-25 15:00:00,61.1,29.5,30.05,SW,235,4.0,8.0,30,0.00,,OVC080,0.03,693.00,VWS V14.01,2013-04-25 19:00:00,
2013-04-25 15:04:00,61.3,30.4,30.05,WNW,288,5.0,9.0,31,0.00,,OVC021,0.03,707.00,VWS V14.01,2013-04-25 19:04:00,
2013-04-25 15:05:00,61.2,30.4,30.05,WNW,296,3.0,11.0,31,0.00,,OVC080,0.03,657.00,VWS V14.01,2013-04-25 19:05:00,
2013-04-25 15:09:00,61.5,30.6,30.05,West,278,7.0,11.0,31,0.00,,OVC021,0.03,626.00,VWS V14.01,2013-04-25 19:09:00,
2013-04-25 15:10:00,61.5,29.8,30.05,West,268,8.0,11.0,30,0.00,,OVC080,0.03,608.00,VWS V14.01,2013-04-25 19:10:00,
2013-04-25 15:14:00,61.1,30.3,30.05,West,266,9.0,9.0,31,0.00,,OVC021,0.03,733.00,VWS V14.01,2013-04-25 19:14:00,
2013-04-25 15:15:00,61.1,30.3,30.05,NNW,331,6.0,11.0,31,0.00,,OVC080,0.03,752.00,VWS V14.01,2013-04-25 19:15:00,
2013-04-25 15:19:00,61.2,29.5,30.05,NNW,331,6.0,6.0,30,0.00,,OVC021,0.03,705.00,VWS V14.01,2013-04-25 19:19:00,
2013-04-25 15:20:00,61.2,29.5,30.05,North,360,3.0,11.0,30,0.00,,OVC080,0.03,708.00,VWS V14.01,2013-04-25 19:20:00,
2013-04-25 15:24:00,61.4,30.5,30.04,WNW,303,1.0,5.0,31,0.00,,OVC021,0.03,686.00,VWS V14.01,2013-04-25 19:24:00,
2013-04-25 15:25:00,61.3,30.4,30.04,NW,305,3.0,8.0,31,0.00,,OVC080,0.03,691.00,VWS V14.01,2013-04-25 19:25:00,
2013-04-25 15:29:00,61.5,28.1,30.03,NW,312,6.0,15.0,28,0.00,,OVC021,0.03,675.00,VWS V14.01,2013-04-25 19:29:00,
2013-04-25 15:30:00,61.6,29.9,30.04,NW,307,12.0,13.0,30,0.00,,OVC080,0.03,677.00,VWS V14.01,2013-04-25 19:30:00,
2013-04-25 15:34:00,61.4,29.7,30.03,NW,326,10.0,13.0,30,0.00,,OVC021,0.03,659.00,VWS V14.01,2013-04-25 19:34:00,
2013-04-25 15:35:00,61.5,31.4,30.03,NNE,24,9.0,15.0,32,0.00,,OVC080,0.03,656.00,VWS V14.01,2013-04-25 19:35:00,
2013-04-25 15:39:00,61.1,30.3,30.03,North,355,6.0,10.0,31,0.00,,OVC021,0.03,647.00,VWS V14.01,2013-04-25 19:39:00,
2013-04-25 15:40:00,61.1,29.5,30.03,North,355,5.0,13.0,30,0.00,,OVC080,0.03,647.00,VWS V14.01,2013-04-25 19:40:00,
2013-04-25 15:44:00,61.1,29.5,30.04,North,355,5.0,10.0,30,0.00,,OVC021,0.03,633.00,VWS V14.01,2013-04-25 19:44:00,
2013-04-25 15:45:00,61.1,30.3,30.03,NW,311,7.0,10.0,31,0.00,,OVC080,0.03,628.00,VWS V14.01,2013-04-25 19:45:00,
2013-04-25 15:49:00,61.2,30.4,30.03,NNW,333,3.0,8.0,31,0.00,,OVC021,0.03,610.00,VWS V14.01,2013-04-25 19:49:00,
2013-04-25 15:50:00,61.1,29.5,30.03,North,5,4.0,10.0,30,0.00,,CLR,0.03,617.00,VWS V14.01,2013-04-25 19:50:00,
2013-04-25 15:54:00,61.4,28.9,30.03,North,355,1.0,5.0,29,0.00,,OVC021,0.03,599.00,VWS V14.01,2013-04-25 19:54:00,
2013-04-25 15:55:00,61.4,29.7,30.03,North,355,5.0,8.0,30,0.00,,OVC080,0.03,601.00,VWS V14.01,2013-04-25 19:55:00,
2013-04-25 15:59:00,61.9,29.3,30.04,WSW,250,8.0,9.0,29,0.00,,OVC021,0.03,591.00,VWS V14.01,2013-04-25 19:59:00,
2013-04-25 16:00:00,61.7,30.0,30.04,WSW,244,3.0,11.0,30,0.00,,OVC080,0.03,594.00,VWS V14.01,2013-04-25 20:00:00,
2013-04-25 16:04:00,62.3,31.3,30.03,WNW,286,3.0,7.0,31,0.00,,OVC021,0.03,573.00,VWS V14.01,2013-04-25 20:04:00,
2013-04-25 16:05:00,62.1,30.3,30.03,SW,229,3.0,9.0,30,0.00,,OVC080,0.03,580.00,VWS V14.01,2013-04-25 20:05:00,
2013-04-25 16:09:00,62.6,30.8,30.03,WNW,294,2.0,4.0,30,0.00,,OVC021,0.03,557.00,VWS V14.01,2013-04-25 20:09:00,
2013-04-25 16:10:00,62.5,30.7,30.04,WNW,296,4.0,7.0,30,0.00,,CLR,0.03,563.00,VWS V14.01,2013-04-25 20:10:00,
2013-04-25 16:14:00,62.4,29.8,30.04,SW,227,8.0,8.0,29,0.00,,OVC021,0.03,541.00,VWS V14.01,2013-04-25 20:14:00,
2013-04-25 16:15:00,62.7,30.0,30.04,SW,225,4.0,8.0,29,0.00,,OVC080,0.03,548.00,VWS V14.01,2013-04-25 20:15:00,
2013-04-25 16:19:00,62.0,30.2,30.04,WNW,282,8.0,11.0,30,0.00,,OVC021,0.03,527.00,VWS V14.01,2013-04-25 20:19:00,
2013-04-25 16:20:00,62.0,28.5,30.04,WNW,283,10.0,12.0,28,0.00,,OVC080,0.03,533.00,VWS V14.01,2013-04-25 20:20:00,
2013-04-25 16:24:00,62.3,29.7,30.04,West,268,10.0,12.0,29,0.00,,OVC021,0.03,517.00,VWS V14.01,2013-04-25 20:24:00,
2013-04-25 16:25:00,62.2,29.6,30.04,NW,317,11.0,11.0,29,0.00,,OVC080,0.03,522.00,VWS V14.01,2013-04-25 20:25:00,
2013-04-25 16:29:00,62.3,30.5,30.04,WNW,303,6.0,13.0,30,0.00,,OVC021,0.03,504.00,VWS V14.01,2013-04-25 20:29:00,
2013-04-25 16:30:00,62.3,28.8,30.04,West,269,13.0,13.0,28,0.00,,OVC080,0.03,504.00,VWS V14.01,2013-04-25 20:30:00,
2013-04-25 16:35:00,62.0,26.8,30.05,WSW,245,5.0,9.0,26,0.00,,OVC021,0.03,490.00,VWS V14.01,2013-04-25 20:35:00,
2013-04-25 16:40:00,62.3,28.8,30.04,SW,228,3.0,9.0,28,0.00,,OVC021,0.03,469.00,VWS V14.01,2013-04-25 20:40:00,
2013-04-25 16:45:00,62.8,30.1,30.05,NW,319,5.0,11.0,29,0.00,,OVC021,0.03,455.00,VWS V14.01,2013-04-25 20:45:00,
2013-04-25 16:50:00,62.6,27.3,30.05,WNW,287,8.0,10.0,26,0.00,,OVC021,0.03,439.00,VWS V14.01,2013-04-25 20:50:00,
2013-04-25 16:55:00,62.0,26.8,30.05,WSW,245,13.0,13.0,26,0.00,,OVC021,0.03,429.00,VWS V14.01,2013-04-25 20:55:00,
2013-04-25 17:00:00,61.8,26.6,30.05,NW,306,5.0,10.0,26,0.00,,OVC021,0.03,413.00,VWS V14.01,2013-04-25 21:00:00,
2013-04-25 17:05:00,61.8,26.6,30.06,NW,316,4.0,13.0,26,0.00,,OVC021,0.03,397.00,VWS V14.01,2013-04-25 21:05:00,
2013-04-25 17:10:00,61.7,26.5,30.06,WSW,252,6.0,6.0,26,0.00,,OVC021,0.03,383.00,VWS V14.01,2013-04-25 21:10:00,
2013-04-25 17:15:00,62.0,27.7,30.06,WNW,302,2.0,5.0,27,0.00,,OVC021,0.03,366.00,VWS V14.01,2013-04-25 21:15:00,
2013-04-25 17:20:00,62.0,27.7,30.06,WNW,300,4.0,10.0,27,0.00,,OVC021,0.03,350.00,VWS V14.01,2013-04-25 21:20:00,
2013-04-25 17:25:00,62.1,28.6,30.07,WNW,302,4.0,10.0,28,0.00,,OVC021,0.03,332.00,VWS V14.01,2013-04-25 21:25:00,
2013-04-25 17:30:00,61.7,27.4,30.06,West,269,6.0,12.0,27,0.00,,OVC021,0.03,318.00,VWS V14.01,2013-04-25 21:30:00,
2013-04-25 17:35:00,61.4,27.1,30.06,North,5,9.0,15.0,27,0.00,,OVC021,0.03,302.00,VWS V14.01,2013-04-25 21:35:00,
2013-04-25 17:40:00,61.3,27.1,30.07,NNW,334,5.0,8.0,27,0.00,,OVC021,0.03,287.00,VWS V14.01,2013-04-25 21:40:00,
2013-04-25 17:45:00,61.5,28.1,30.07,NW,304,6.0,12.0,28,0.00,,OVC021,0.03,269.00,VWS V14.01,2013-04-25 21:45:00,
2013-04-25 17:50:00,61.5,26.3,30.07,WNW,298,8.0,11.0,26,0.00,,OVC021,0.03,251.00,VWS V14.01,2013-04-25 21:50:00,
2013-04-25 17:55:00,61.4,26.2,30.07,WNW,288,7.0,11.0,26,0.00,,OVC080,0.03,243.00,VWS V14.01,2013-04-25 21:55:00,
2013-04-25 17:56:00,61.3,25.2,30.07,WNW,295,5.0,11.0,25,0.00,,OVC021,0.03,234.00,VWS V14.01,2013-04-25 21:56:00,
2013-04-25 18:00:00,61.3,26.1,30.07,WNW,300,5.0,11.0,26,0.00,,OVC080,0.03,230.00,VWS V14.01,2013-04-25 22:00:00,
2013-04-25 18:01:00,61.1,26.9,30.07,West,271,7.0,10.0,27,0.00,,OVC021,0.03,218.00,VWS V14.01,2013-04-25 22:01:00,
2013-04-25 18:05:00,61.1,26.9,30.07,NW,313,5.0,10.0,27,0.00,,OVC080,0.03,174.00,VWS V14.01,2013-04-25 22:05:00,
2013-04-25 18:06:00,61.0,26.8,30.07,West,277,5.0,11.0,27,0.00,,OVC021,0.03,172.00,VWS V14.01,2013-04-25 22:06:00,
2013-04-25 18:10:00,61.0,26.8,30.07,West,266,4.0,11.0,27,0.00,,OVC080,0.03,121.00,VWS V14.01,2013-04-25 22:10:00,
2013-04-25 18:11:00,61.1,26.0,30.08,West,276,5.0,13.0,26,0.00,,OVC021,0.03,158.00,VWS V14.01,2013-04-25 22:11:00,
2013-04-25 18:15:00,61.0,25.0,30.07,West,272,6.0,13.0,25,0.00,,OVC080,0.03,142.00,VWS V14.01,2013-04-25 22:15:00,
2013-04-25 18:16:00,60.9,25.8,30.08,NW,311,7.0,8.0,26,0.00,,OVC021,0.03,142.00,VWS V14.01,2013-04-25 22:16:00,
2013-04-25 18:20:00,60.9,25.8,30.08,NW,321,3.0,8.0,26,0.00,,OVC080,0.03,158.00,VWS V14.01,2013-04-25 22:20:00,
2013-04-25 18:21:00,60.8,25.7,30.07,WNW,284,4.0,8.0,26,0.00,,OVC021,0.03,148.00,VWS V14.01,2013-04-25 22:21:00,
2013-04-25 18:25:00,60.9,26.7,30.07,West,266,6.0,8.0,27,0.00,,OVC080,0.03,142.00,VWS V14.01,2013-04-25 22:25:00,
2013-04-25 18:26:00,60.9,26.7,30.08,West,274,2.0,9.0,27,0.00,,OVC021,0.03,130.00,VWS V14.01,2013-04-25 22:26:00,
2013-04-25 18:30:00,61.0,25.9,30.08,WNW,301,6.0,9.0,26,0.00,,OVC080,0.03,128.00,VWS V14.01,2013-04-25 22:30:00,
2013-04-25 18:31:00,60.8,24.8,30.08,NW,306,6.0,9.0,25,0.00,,OVC021,0.03,116.00,VWS V14.01,2013-04-25 22:31:00,
2013-04-25 18:35:00,60.9,25.8,30.08,WNW,286,3.0,9.0,26,0.00,,OVC080,0.03,109.00,VWS V14.01,2013-04-25 22:35:00,
2013-04-25 18:36:00,60.9,24.9,30.08,WNW,302,5.0,8.0,25,0.00,,OVC021,0.03,98.00,VWS V14.01,2013-04-25 22:36:00,
2013-04-25 18:40:00,60.9,25.8,30.08,West,260,6.0,8.0,26,0.00,,OVC080,0.03,93.00,VWS V14.01,2013-04-25 22:40:00,
2013-04-25 18:41:00,60.8,24.8,30.08,WNW,292,6.0,10.0,25,0.00,,OVC021,0.03,83.00,VWS V14.01,2013-04-25 22:41:00,
2013-04-25 18:45:00,60.7,24.7,30.08,West,271,7.0,10.0,25,0.00,,OVC080,0.03,77.00,VWS V14.01,2013-04-25 22:45:00,
2013-04-25 18:46:00,60.4,24.4,30.08,West,274,6.0,10.0,25,0.00,,OVC021,0.03,67.00,VWS V14.01,2013-04-25 22:46:00,
2013-04-25 18:50:00,60.4,23.5,30.08,NNW,335,5.0,10.0,24,0.00,,OVC080,0.03,62.00,VWS V14.01,2013-04-25 22:50:00,
2013-04-25 18:51:00,60.2,24.3,30.09,NW,306,4.0,9.0,25,0.00,,OVC021,0.03,53.00,VWS V14.01,2013-04-25 22:51:00,
2013-04-25 18:55:00,60.2,24.3,30.09,West,276,4.0,9.0,25,0.00,,OVC080,0.03,49.00,VWS V14.01,2013-04-25 22:55:00,
2013-04-25 18:56:00,60.1,24.2,30.09,NW,304,4.0,9.0,25,0.00,,OVC021,0.03,42.00,VWS V14.01,2013-04-25 22:56:00,
2013-04-25 19:00:00,60.1,24.2,30.09,NW,314,6.0,9.0,25,0.00,,OVC080,0.03,39.00,VWS V14.01,2013-04-25 23:00:00,
2013-04-25 19:01:00,59.9,24.0,30.09,WNW,294,4.0,8.0,25,0.00,,OVC021,0.03,32.00,VWS V14.01,2013-04-25 23:01:00,
2013-04-25 19:05:00,59.9,24.0,30.09,West,265,5.0,8.0,25,0.00,,OVC080,0.03,32.00,VWS V14.01,2013-04-25 23:05:00,
2013-04-25 19:06:00,59.8,23.9,30.09,West,276,2.0,7.0,25,0.00,,OVC021,0.03,25.00,VWS V14.01,2013-04-25 23:06:00,
2013-04-25 19:10:00,59.8,24.9,30.09,West,281,3.0,7.0,26,0.00,,OVC080,0.03,23.00,VWS V14.01,2013-04-25 23:10:00,
2013-04-25 19:11:00,59.6,24.7,30.09,WNW,302,2.0,6.0,26,0.00,,OVC021,0.03,19.00,VWS V14.01,2013-04-25 23:11:00,
2013-04-25 19:15:00,59.6,23.8,30.09,WNW,282,4.0,6.0,25,0.00,,OVC080,0.03,19.00,VWS V14.01,2013-04-25 23:15:00,
2013-04-25 19:16:00,59.4,24.5,30.09,NW,319,5.0,6.0,26,0.00,,OVC021,0.03,16.00,VWS V14.01,2013-04-25 23:16:00,
2013-04-25 19:20:00,59.3,23.5,30.09,NW,307,3.0,6.0,25,0.00,,OVC080,0.03,16.00,VWS V14.01,2013-04-25 23:20:00,
2013-04-25 19:21:00,59.1,24.3,30.10,WNW,294,2.0,7.0,26,0.00,,OVC021,0.03,12.00,VWS V14.01,2013-04-25 23:21:00,
2013-04-25 19:25:00,59.0,24.2,30.10,West,277,5.0,7.0,26,0.00,,OVC080,0.03,12.00,VWS V14.01,2013-04-25 23:25:00,
2013-04-25 19:27:00,58.7,23.9,30.10,WNW,290,2.0,5.0,26,0.00,,OVC021,0.03,11.00,VWS V14.01,2013-04-25 23:27:00,
2013-04-25 19:30:00,58.6,23.8,30.10,WNW,295,5.0,5.0,26,0.00,,OVC080,0.03,9.00,VWS V14.01,2013-04-25 23:30:00,
2013-04-25 19:32:00,58.4,24.6,30.10,WNW,295,0.0,5.0,27,0.00,,OVC021,0.03,7.00,VWS V14.01,2013-04-25 23:32:00,
2013-04-25 19:35:00,58.4,24.6,30.10,WNW,295,0.0,5.0,27,0.00,,OVC080,0.03,7.00,VWS V14.01,2013-04-25 23:35:00,
2013-04-25 19:37:00,58.1,24.3,30.12,WNW,296,1.0,3.0,27,0.00,,OVC021,0.03,5.00,VWS V14.01,2013-04-25 23:37:00,
2013-04-25 19:40:00,58.0,24.2,30.12,WNW,296,0.0,3.0,27,0.00,,OVC080,0.03,5.00,VWS V14.01,2013-04-25 23:40:00,
2013-04-25 19:42:00,57.7,24.8,30.12,WNW,296,2.0,3.0,28,0.00,,OVC021,0.03,0.00,VWS V14.01,2013-04-25 23:42:00,
2013-04-25 19:45:00,57.6,24.8,30.12,WNW,297,2.0,3.0,28,0.00,,OVC080,0.03,0.00,VWS V14.01,2013-04-25 23:45:00,
2013-04-25 19:47:00,57.3,24.5,30.11,WNW,297,2.0,5.0,28,0.00,,OVC021,0.03,0.00,VWS V14.01,2013-04-25 23:47:00,
2013-04-25 19:50:00,57.3,24.5,30.11,WNW,297,0.0,5.0,28,0.00,,OVC080,0.03,0.00,VWS V14.01,2013-04-25 23:50:00,
2013-04-25 19:52:00,57.1,24.3,30.12,WNW,297,1.0,2.0,28,0.00,,OVC021,0.03,0.00,VWS V14.01,2013-04-25 23:52:00,
2013-04-25 19:55:00,57.0,24.2,30.12,WNW,297,0.0,2.0,28,0.00,,OVC080,0.03,0.00,VWS V14.01,2013-04-25 23:55:00,
2013-04-25 19:57:00,56.8,24.1,30.12,WNW,296,0.0,1.0,28,0.00,,OVC021,0.03,0.00,VWS V14.01,2013-04-25 23:57:00,
2013-04-25 20:00:00,56.8,24.1,30.12,WNW,297,1.0,2.0,28,0.00,,OVC080,0.03,0.00,VWS V14.01,2013-04-26 00:00:00,
2013-04-25 20:05:00,56.5,25.5,30.12,WNW,297,0.0,2.0,30,0.00,,OVC080,0.03,0.00,VWS V14.01,2013-04-26 00:05:00,
2013-04-25 20:10:00,56.1,27.4,30.13,WNW,297,0.0,0.0,33,0.00,,OVC080,0.03,0.00,VWS V14.01,2013-04-26 00:10:00,
2013-04-25 20:15:00,55.6,28.4,30.12,WNW,297,0.0,0.0,35,0.00,,OVC080,0.03,0.00,VWS V14.01,2013-04-26 00:15:00,
2013-04-25 20:20:00,55.0,28.6,30.14,WNW,297,0.0,2.0,36,0.00,,OVC080,0.03,0.00,VWS V14.01,2013-04-26 00:20:00,
2013-04-25 20:25:00,54.4,28.7,30.13,WNW,297,0.0,1.0,37,0.00,,OVC080,0.03,0.00,VWS V14.01,2013-04-26 00:25:00,
2013-04-25 20:30:00,53.8,27.5,30.14,WNW,297,1.0,3.0,36,0.00,,OVC080,0.03,0.00,VWS V14.01,2013-04-26 00:30:00,
2013-04-25 20:35:00,53.3,28.4,30.14,WNW,297,0.0,1.0,38,0.00,,OVC080,0.03,0.00,VWS V14.01,2013-04-26 00:35:00,
2013-04-25 20:40:00,52.9,25.3,30.15,NW,312,2.0,4.0,34,0.00,,OVC080,0.03,0.00,VWS V14.01,2013-04-26 00:40:00,
2013-04-25 20:45:00,52.8,25.2,30.14,NW,312,0.0,2.0,34,0.00,,OVC080,0.03,0.00,VWS V14.01,2013-04-26 00:45:00,
2013-04-25 20:50:00,52.9,25.3,30.15,NW,312,0.0,1.0,34,0.00,,OVC080,0.03,0.00,VWS V14.01,2013-04-26 00:50:00,
2013-04-25 20:55:00,52.8,27.9,30.16,NW,312,0.0,1.0,38,0.00,,OVC080,0.03,0.00,VWS V14.01,2013-04-26 00:55:00,
2013-04-25 21:00:00,52.5,28.9,30.15,NW,312,0.0,0.0,40,0.00,,OVC080,0.03,0.00,VWS V14.01,2013-04-26 01:00:00,
2013-04-25 21:05:00,52.0,28.5,30.17,NW,312,0.0,0.0,40,0.00,,OVC080,0.03,0.00,VWS V14.01,2013-04-26 01:05:00,
2013-04-25 21:10:00,51.5,28.6,30.16,NW,312,0.0,0.0,41,0.00,,OVC080,0.03,0.00,VWS V14.01,2013-04-26 01:10:00,
2013-04-25 21:15:00,50.9,28.1,30.17,NW,311,0.0,1.0,41,0.00,,OVC080,0.03,0.00,VWS V14.01,2013-04-26 01:15:00,
2013-04-25 21:20:00,50.4,28.2,30.16,NW,312,0.0,1.0,42,0.00,,OVC080,0.03,0.00,VWS V14.01,2013-04-26 01:20:00,
2013-04-25 21:25:00,50.1,28.5,30.18,NW,312,0.0,0.0,43,0.00,,OVC080,0.03,0.00,VWS V14.01,2013-04-26 01:25:00,
2013-04-25 21:30:00,49.8,28.8,30.17,NW,312,0.0,0.0,44,0.00,,OVC080,0.03,0.00,VWS V14.01,2013-04-26 01:30:00,
2013-04-25 21:35:00,49.3,27.8,30.17,NW,311,0.0,1.0,43,0.00,,OVC080,0.03,0.00,VWS V14.01,2013-04-26 01:35:00,
2013-04-25 21:40:00,48.9,28.5,30.17,NW,312,0.0,1.0,45,0.00,,OVC080,0.03,0.00,VWS V14.01,2013-04-26 01:40:00,
2013-04-25 21:45:00,48.7,27.8,30.17,NW,312,0.0,1.0,44,0.00,,CLR,0.03,0.00,VWS V14.01,2013-04-26 01:45:00,
2013-04-25 21:50:00,48.4,28.6,30.18,NW,312,1.0,2.0,46,0.00,,OVC080,0.03,0.00,VWS V14.01,2013-04-26 01:50:00,
2013-04-25 21:55:00,48.1,28.3,30.17,NW,311,0.0,1.0,46,0.00,,OVC080,0.03,0.00,VWS V14.01,2013-04-26 01:55:00,
2013-04-25 22:00:00,47.8,28.6,30.19,NW,312,0.0,0.0,47,0.00,,OVC080,0.03,0.00,VWS V14.01,2013-04-26 02:00:00,
2013-04-25 22:05:00,47.6,28.9,30.18,NW,312,0.0,0.0,48,0.00,,OVC080,0.03,0.00,VWS V14.01,2013-04-26 02:05:00,
2013-04-25 22:10:00,47.4,28.7,30.18,NW,312,0.0,0.0,48,0.00,,OVC080,0.03,0.00,VWS V14.01,2013-04-26 02:10:00,
2013-04-25 22:15:00,47.2,29.0,30.18,NW,312,0.0,1.0,49,0.00,,OVC080,0.03,0.00,VWS V14.01,2013-04-26 02:15:00,
2013-04-25 22:20:00,46.9,28.2,30.18,NW,312,0.0,0.0,48,0.00,,OVC080,0.03,0.00,VWS V14.01,2013-04-26 02:20:00,
2013-04-25 22:25:00,46.8,28.7,30.19,NW,312,0.0,0.0,49,0.00,,OVC080,0.03,0.00,VWS V14.01,2013-04-26 02:25:00,
2013-04-25 22:30:00,46.6,29.5,30.18,NW,312,0.0,1.0,51,0.00,,OVC080,0.03,0.00,VWS V14.01,2013-04-26 02:30:00,
2013-04-25 22:35:00,46.4,29.3,30.20,NW,312,1.0,1.0,51,0.00,,OVC080,0.03,0.00,VWS V14.01,2013-04-26 02:35:00,
2013-04-25 22:40:00,46.2,29.1,30.19,NW,312,0.0,1.0,51,0.00,,OVC080,0.03,0.00,VWS V14.01,2013-04-26 02:40:00,
2013-04-25 22:45:00,46.0,29.4,30.19,NW,312,0.0,1.0,52,0.00,,OVC080,0.03,0.00,VWS V14.01,2013-04-26 02:45:00,
2013-04-25 22:50:00,45.7,29.6,30.20,NW,312,0.0,0.0,53,0.00,,OVC080,0.03,0.00,VWS V14.01,2013-04-26 02:50:00,
2013-04-25 22:55:00,45.4,29.3,30.19,NW,311,0.0,0.0,53,0.00,,OVC080,0.03,0.00,VWS V14.01,2013-04-26 02:55:00,
2013-04-25 23:00:00,45.1,29.0,30.20,NW,312,1.0,2.0,53,0.00,,OVC080,0.03,0.00,VWS V14.01,2013-04-26 03:00:00,
2013-04-25 23:05:00,45.1,29.5,30.19,NW,312,1.0,2.0,54,0.00,,OVC080,0.03,0.00,VWS V14.01,2013-04-26 03:05:00,
2013-04-25 23:10:00,45.0,28.9,30.19,NW,311,0.0,1.0,53,0.00,,OVC080,0.03,0.00,VWS V14.01,2013-04-26 03:10:00,
2013-04-25 23:15:00,44.7,29.1,30.20,NW,312,0.0,0.0,54,0.00,,OVC080,0.03,0.00,VWS V14.01,2013-04-26 03:15:00,
2013-04-25 23:20:00,44.4,29.3,30.20,NW,312,0.0,0.0,55,0.00,,OVC080,0.03,0.00,VWS V14.01,2013-04-26 03:20:00,
2013-04-25 23:25:00,44.1,29.0,30.20,NW,311,0.0,0.0,55,0.00,,OVC080,0.03,0.00,VWS V14.01,2013-04-26 03:25:00,
2013-04-25 23:30:00,43.8,29.6,30.20,NW,312,0.0,0.0,57,0.00,,OVC080,0.03,0.00,VWS V14.01,2013-04-26 03:30:00,
2013-04-25 23:35:00,43.5,29.7,30.20,NW,312,0.0,0.0,58,0.00,,OVC080,0.03,0.00,VWS V14.01,2013-04-26 03:35:00,
2013-04-25 23:40:00,43.2,29.0,30.20,NW,312,0.0,0.0,57,0.00,,OVC080,0.03,0.00,VWS V14.01,2013-04-26 03:40:00,
2013-04-25 23:45:00,42.8,29.1,30.20,NW,312,0.0,0.0,58,0.00,,OVC080,0.03,0.00,VWS V14.01,2013-04-26 03:45:00,
2013-04-25 23:50:00,42.6,30.9,30.21,NW,312,0.0,0.0,63,0.00,,OVC080,0.03,0.00,VWS V14.01,2013-04-26 03:50:00,
2013-04-25 23:55:00,42.4,29.9,30.21,NW,312,0.0,1.0,61,0.00,,OVC080,0.03,0.00,VWS V14.01,2013-04-26 03:55:00,